Portada
METAR-TAF:

METAR-TAF

Aeroports :

Asyut, Egipte

latitud: 27-03N, longitud: 031-01E, altitud: 226 m

Observació

L'informe es va fer fa 26 minuts, a les 04:00 UTC
Vent calma
Temperatura 2°C
Humitat 80%
Pressió 1026 hPa
Visibilitat 10 km o més
sense núvols per sota de 1500 mi sense presència de cumulonimbus.

METAR: HEAT 210400Z 00000KT CAVOK 02/M01 Q1026 NOSIG

Hora: 06:26 (04:26 UTC)

Pronòstic

L'informe es va fer fa 5 hores i 26 minuts, a les 23:00 UTC
Pronòstic vàlid del 21 a les 00 UTC al 22 a les 06 UTC
Vent 8 kt del Nord/Nord-Oest
Visibilitat 10 km o més
sense núvols per sota de 1500 mi sense presència de cumulonimbus.
Temporalment
l' 21 a les 00 UTC al 21 a les 08 UTC
Vent 3 kt amb direcció variable
Visibilitat: 3000 m
boirina

TAF: HEAT 202300Z 2100/2206 33008KT CAVOK TEMPO 2100/2108 VRB03KT 3000 BR NSC

Observacions i pronòstics meteorològics de més de 4000 aeroports (METAR i TAF).

Les estacions disponibles són els punts grocs i vermells al mapa.

Posi el ratolí al punt desitjat per veure el nom de l'estació.

Feu clic per veure les observacions i els pronòstics meteorològics.

Per canviar el mapa: feu clic els botons verds amb una creu de color negre per apropar; al botó verd amb un guió per allunyar la imatge; o en les fletxes verdes per a mapes adjacents.


METAR-TAF: